createdAt,value
2018-12-18T00:00:21.596Z,8.91
2018-12-18T00:02:51.381Z,8.94
2018-12-18T00:05:25.712Z,8.95
2018-12-18T00:07:54.068Z,8.95
2018-12-18T00:10:24.391Z,8.97
2018-12-18T00:12:52.603Z,8.96
2018-12-18T00:15:20.876Z,9.00
2018-12-18T00:17:49.019Z,9.02
2018-12-18T00:20:17.240Z,9.04
2018-12-18T00:22:45.403Z,9.08
2018-12-18T00:25:13.845Z,9.11
2018-12-18T00:27:42.072Z,9.11
2018-12-18T00:30:10.763Z,9.13
2018-12-18T00:32:38.959Z,9.11
2018-12-18T00:35:07.288Z,9.10
2018-12-18T00:37:35.604Z,9.12
2018-12-18T00:40:04.700Z,9.10
2018-12-18T00:42:32.864Z,9.06
2018-12-18T00:45:01.025Z,9.08
2018-12-18T00:47:29.319Z,9.04
2018-12-18T00:49:57.468Z,9.00
2018-12-18T00:52:25.787Z,8.96
2018-12-18T00:54:53.940Z,8.88
2018-12-18T00:57:22.112Z,8.85
2018-12-18T00:59:50.288Z,8.84
2018-12-18T01:02:18.587Z,8.82
2018-12-18T01:04:46.983Z,8.82
2018-12-18T01:07:15.732Z,8.85
2018-12-18T01:09:43.907Z,8.88
2018-12-18T01:12:12.068Z,8.90
2018-12-18T01:14:40.474Z,8.90
2018-12-18T01:17:08.636Z,8.91
2018-12-18T01:19:36.807Z,8.91
2018-12-18T01:22:05.145Z,8.90
2018-12-18T01:24:33.296Z,8.88
2018-12-18T01:27:01.454Z,8.87
2018-12-18T01:29:29.736Z,8.83
2018-12-18T01:31:58.028Z,8.77
2018-12-18T01:34:26.182Z,8.69
2018-12-18T01:36:54.331Z,8.63
2018-12-18T01:39:22.520Z,8.56
2018-12-18T01:41:50.805Z,8.53
2018-12-18T01:44:18.974Z,8.46
2018-12-18T01:46:47.139Z,8.43
2018-12-18T01:49:15.415Z,8.35
2018-12-18T01:51:44.024Z,8.20
2018-12-18T01:54:12.188Z,8.09
2018-12-18T01:56:40.331Z,7.95
2018-12-18T01:59:08.602Z,7.86
2018-12-18T02:01:36.820Z,7.75
2018-12-18T02:04:06.160Z,7.65
2018-12-18T02:06:34.656Z,7.44
2018-12-18T02:09:02.973Z,7.33
2018-12-18T02:11:31.148Z,7.24
2018-12-18T02:13:59.323Z,7.18
2018-12-18T02:16:27.496Z,7.12
2018-12-18T02:18:55.686Z,7.06
2018-12-18T02:21:23.844Z,7.03
2018-12-18T02:23:52.032Z,6.99
2018-12-18T02:26:20.226Z,7.00
2018-12-18T02:28:48.388Z,6.99
2018-12-18T02:31:16.668Z,6.94
2018-12-18T02:33:44.832Z,7.01
2018-12-18T02:36:13.128Z,7.08
2018-12-18T02:38:41.288Z,7.01
2018-12-18T02:41:09.439Z,6.87
2018-12-18T02:43:37.695Z,6.79
2018-12-18T02:46:05.941Z,6.71
2018-12-18T02:48:34.487Z,6.75
2018-12-18T02:51:02.638Z,6.71
2018-12-18T02:53:30.843Z,6.76
2018-12-18T02:55:58.991Z,6.81
2018-12-18T02:58:27.198Z,6.86
2018-12-18T03:00:55.467Z,6.88
2018-12-18T03:03:23.647Z,6.87
2018-12-18T03:05:51.815Z,6.85
2018-12-18T03:08:19.993Z,6.85
2018-12-18T03:10:48.160Z,6.93
2018-12-18T03:13:16.342Z,7.05
2018-12-18T03:15:44.521Z,6.92
2018-12-18T03:18:12.672Z,6.86
2018-12-18T03:20:40.867Z,6.85
2018-12-18T03:23:09.088Z,6.85
2018-12-18T03:25:37.244Z,6.87
2018-12-18T03:28:05.399Z,6.94
2018-12-18T03:30:33.669Z,6.99
2018-12-18T03:33:02.236Z,7.08
2018-12-18T03:35:30.531Z,7.11
2018-12-18T03:37:58.699Z,7.17
2018-12-18T03:40:26.998Z,7.22
2018-12-18T03:42:55.156Z,7.28
2018-12-18T03:45:23.447Z,7.37
2018-12-18T03:47:51.612Z,7.36
2018-12-18T03:50:19.776Z,7.36
2018-12-18T03:52:47.957Z,7.37
2018-12-18T03:55:16.128Z,7.38
2018-12-18T03:57:44.276Z,7.39
2018-12-18T04:00:12.533Z,7.39
2018-12-18T04:02:40.760Z,7.39
2018-12-18T04:05:08.942Z,7.39
2018-12-18T04:07:37.610Z,7.42
2018-12-18T04:10:06.716Z,7.27
2018-12-18T04:12:35.027Z,7.51
2018-12-18T04:15:03.285Z,7.52
2018-12-18T04:17:31.457Z,7.53
2018-12-18T04:20:00.260Z,7.52
2018-12-18T04:22:28.418Z,7.47
2018-12-18T04:24:56.582Z,7.42
2018-12-18T04:27:24.747Z,7.42
2018-12-18T04:29:52.929Z,7.46
2018-12-18T04:32:21.186Z,7.49
2018-12-18T04:34:49.388Z,7.53
2018-12-18T04:37:17.676Z,7.58
2018-12-18T04:39:45.840Z,7.60
2018-12-18T04:42:14.001Z,7.63
2018-12-18T04:44:42.147Z,7.65
2018-12-18T04:47:10.315Z,7.67
2018-12-18T04:49:38.548Z,7.66
2018-12-18T04:52:06.724Z,7.66
2018-12-18T04:54:35.007Z,7.67
2018-12-18T04:57:03.331Z,7.64
2018-12-18T04:59:31.476Z,7.55
2018-12-18T05:01:59.740Z,7.59
2018-12-18T05:04:27.913Z,7.54
2018-12-18T05:06:56.068Z,7.45
2018-12-18T05:09:24.222Z,7.48
2018-12-18T05:11:52.392Z,7.36
2018-12-18T05:14:20.660Z,7.28
2018-12-18T05:16:48.994Z,7.15
2018-12-18T05:19:17.364Z,7.12
2018-12-18T05:21:45.757Z,7.15
2018-12-18T05:24:13.904Z,7.21
2018-12-18T05:26:42.060Z,7.30
2018-12-18T05:29:10.260Z,7.40
2018-12-18T05:31:38.463Z,7.45
2018-12-18T05:34:06.827Z,7.50
2018-12-18T05:36:34.986Z,7.56
2018-12-18T05:39:05.208Z,7.56
2018-12-18T05:41:33.607Z,7.54
2018-12-18T05:44:01.907Z,7.43
2018-12-18T05:46:30.159Z,7.28
2018-12-18T05:48:58.325Z,7.11
2018-12-18T05:51:26.805Z,6.95
2018-12-18T05:53:55.196Z,6.84
2018-12-18T05:56:23.364Z,6.72
2018-12-18T05:58:51.759Z,6.64
2018-12-18T06:01:19.967Z,6.57
2018-12-18T06:03:48.196Z,6.47
2018-12-18T06:06:16.377Z,6.40
2018-12-18T06:08:44.531Z,6.40
2018-12-18T06:11:12.924Z,6.33
2018-12-18T06:13:41.203Z,6.25
2018-12-18T06:16:09.567Z,6.19
2018-12-18T06:18:37.900Z,6.15
2018-12-18T06:21:06.139Z,6.15
2018-12-18T06:23:34.456Z,6.19
2018-12-18T06:26:02.723Z,6.24
2018-12-18T06:28:30.882Z,6.24
2018-12-18T06:30:59.047Z,6.23
2018-12-18T06:33:27.224Z,6.24
2018-12-18T06:35:55.401Z,6.27
2018-12-18T06:38:25.833Z,6.29
2018-12-18T06:41:00.562Z,6.31
2018-12-18T06:43:30.118Z,6.33
2018-12-18T06:46:02.065Z,6.40
2018-12-18T06:48:35.824Z,6.48
2018-12-18T06:51:08.928Z,6.59
2018-12-18T06:53:40.440Z,6.68
2018-12-18T06:56:13.137Z,6.70
2018-12-18T06:58:46.992Z,6.69
2018-12-18T07:01:18.905Z,6.73
2018-12-18T07:03:52.338Z,6.80
2018-12-18T07:06:25.106Z,6.88
2018-12-18T07:08:57.302Z,6.93
2018-12-18T07:11:29.203Z,6.96
2018-12-18T07:14:00.571Z,6.97
2018-12-18T07:16:34.268Z,6.94
2018-12-18T07:19:08.979Z,6.93
2018-12-18T07:24:29.674Z,6.95
2018-12-18T07:26:57.852Z,6.94
2018-12-18T07:29:26.024Z,6.96
2018-12-18T07:31:54.191Z,6.95
2018-12-18T07:34:22.440Z,6.94
2018-12-18T07:36:50.607Z,6.97
2018-12-18T07:39:18.815Z,7.01
2018-12-18T07:41:47.081Z,7.12
2018-12-18T07:44:15.235Z,7.14
2018-12-18T07:46:43.410Z,7.16
2018-12-18T07:49:11.592Z,7.18
2018-12-18T07:51:39.884Z,7.20
2018-12-18T07:54:08.139Z,7.21
2018-12-18T07:56:36.328Z,7.14
2018-12-18T07:59:04.503Z,7.12
2018-12-18T08:01:32.884Z,7.09
2018-12-18T08:04:01.157Z,7.08
2018-12-18T08:06:29.457Z,7.03
2018-12-18T08:08:57.627Z,7.04
2018-12-18T08:11:25.806Z,7.06
2018-12-18T08:13:54.057Z,7.08
2018-12-18T08:16:22.339Z,7.12
2018-12-18T08:18:50.500Z,7.13
2018-12-18T08:21:19.092Z,7.16
2018-12-18T08:23:47.269Z,7.25
2018-12-18T08:26:15.532Z,7.21
2018-12-18T08:28:43.720Z,7.17
2018-12-18T08:31:12.020Z,7.07
2018-12-18T08:33:40.184Z,6.94
2018-12-18T08:36:08.356Z,6.85
2018-12-18T08:38:36.530Z,6.69
2018-12-18T08:41:04.861Z,6.68
2018-12-18T08:43:33.155Z,6.69
2018-12-18T08:46:01.416Z,6.64
2018-12-18T08:48:29.585Z,6.59
2018-12-18T08:50:57.780Z,6.54
2018-12-18T08:53:26.082Z,6.61
2018-12-18T08:55:54.471Z,6.69
2018-12-18T08:58:22.662Z,6.77
2018-12-18T09:00:50.812Z,6.83
2018-12-18T09:03:19.108Z,6.93
2018-12-18T09:05:47.268Z,6.88
2018-12-18T09:08:15.464Z,6.87
2018-12-18T09:10:43.627Z,6.91
2018-12-18T09:13:11.795Z,7.09
2018-12-18T09:15:45.332Z,7.12
2018-12-18T09:18:13.563Z,7.13
2018-12-18T09:20:41.725Z,7.15
2018-12-18T09:23:09.895Z,7.09
2018-12-18T09:25:38.051Z,7.15
2018-12-18T09:28:06.224Z,7.09
2018-12-18T09:30:35.633Z,7.15
2018-12-18T09:33:04.759Z,7.24
2018-12-18T09:35:32.925Z,7.36
2018-12-18T09:38:06.637Z,7.55
2018-12-18T09:40:40.161Z,7.55
2018-12-18T09:43:13.667Z,7.61
2018-12-18T09:45:41.823Z,7.65
2018-12-18T09:48:09.991Z,7.72
2018-12-18T09:50:38.157Z,7.71
2018-12-18T09:53:06.427Z,7.54
2018-12-18T09:55:34.620Z,7.49
2018-12-18T09:58:04.773Z,7.46
2018-12-18T10:00:33.021Z,7.43
2018-12-18T10:03:01.187Z,7.43
2018-12-18T10:05:29.363Z,7.34
2018-12-18T10:07:57.540Z,7.32
2018-12-18T10:10:25.792Z,7.33
2018-12-18T10:12:55.519Z,7.24
2018-12-18T10:15:24.499Z,7.25
2018-12-18T10:17:52.651Z,7.33
2018-12-18T10:20:20.936Z,7.43
2018-12-18T10:22:49.096Z,7.45
2018-12-18T10:25:17.441Z,7.57
2018-12-18T10:27:45.608Z,7.64
2018-12-18T10:30:14.007Z,7.84
2018-12-18T10:32:42.176Z,7.86
2018-12-18T10:35:10.444Z,7.97
2018-12-18T10:37:38.617Z,8.13
2018-12-18T10:40:09.324Z,8.17
2018-12-18T10:42:37.576Z,8.11
2018-12-18T10:45:13.699Z,8.01
2018-12-18T10:47:38.996Z,8.07
2018-12-18T10:50:07.392Z,8.07
2018-12-18T10:52:35.564Z,8.19
2018-12-18T10:55:04.048Z,8.16
2018-12-18T10:57:32.297Z,8.30
2018-12-18T11:00:00.474Z,8.41
2018-12-18T11:02:28.632Z,8.37
2018-12-18T11:04:56.799Z,8.56
2018-12-18T11:07:25.123Z,8.65
2018-12-18T11:09:53.292Z,8.83
2018-12-18T11:12:26.716Z,8.95
2018-12-18T11:14:54.963Z,9.09
2018-12-18T11:17:23.127Z,9.23
2018-12-18T11:19:51.312Z,9.39
2018-12-18T11:22:19.576Z,9.54
2018-12-18T11:24:47.775Z,9.72
2018-12-18T11:27:15.931Z,9.89
2018-12-18T11:29:44.128Z,10.04
2018-12-18T11:32:12.283Z,10.14
2018-12-18T11:34:40.479Z,10.20
2018-12-18T11:37:08.651Z,10.26
2018-12-18T11:39:37.000Z,10.30
2018-12-18T11:42:05.168Z,10.36
2018-12-18T11:44:33.356Z,10.45
2018-12-18T11:47:01.640Z,10.62
2018-12-18T11:49:29.805Z,10.80
2018-12-18T11:51:58.104Z,10.93
2018-12-18T11:54:26.376Z,11.01
2018-12-18T11:56:54.535Z,11.09
2018-12-18T11:59:22.720Z,11.11
2018-12-18T12:01:50.892Z,11.08
2018-12-18T12:04:19.055Z,11.03
2018-12-18T12:06:47.257Z,10.98
2018-12-18T12:09:15.415Z,10.96
2018-12-18T12:11:43.585Z,10.91
2018-12-18T12:14:11.764Z,10.87
2018-12-18T12:16:39.931Z,10.87
2018-12-18T12:19:08.164Z,10.90
2018-12-18T12:21:36.332Z,10.88
2018-12-18T12:24:04.583Z,10.92
2018-12-18T12:26:34.555Z,10.87
2018-12-18T12:29:02.872Z,10.83
2018-12-18T12:31:31.057Z,10.78
2018-12-18T12:33:59.407Z,10.73
2018-12-18T12:36:29.824Z,10.65
2018-12-18T12:38:57.962Z,10.56
2018-12-18T12:41:26.241Z,10.53
2018-12-18T12:43:54.546Z,10.48
2018-12-18T12:46:22.848Z,10.48
2018-12-18T12:48:54.704Z,10.47
2018-12-18T12:51:23.183Z,10.44
2018-12-18T12:53:51.392Z,10.43
2018-12-18T12:56:19.643Z,10.42
2018-12-18T12:58:47.909Z,10.38
2018-12-18T13:01:16.155Z,10.34
2018-12-18T13:03:44.538Z,10.30
2018-12-18T13:06:12.805Z,10.28
2018-12-18T13:08:41.141Z,10.25
2018-12-18T13:11:09.406Z,10.23
2018-12-18T13:13:37.637Z,10.18
2018-12-18T13:16:05.797Z,10.16
2018-12-18T13:18:34.013Z,10.18
2018-12-18T13:21:02.171Z,10.16
2018-12-18T13:23:30.335Z,10.17
2018-12-18T13:25:59.087Z,10.17
2018-12-18T13:28:27.321Z,10.18
2018-12-18T13:30:55.480Z,10.19
2018-12-18T13:33:23.703Z,10.20
2018-12-18T13:35:51.964Z,10.20
2018-12-18T13:38:20.220Z,10.20
2018-12-18T13:40:48.517Z,10.17
2018-12-18T13:43:16.688Z,10.28
2018-12-18T13:45:44.944Z,10.13
2018-12-18T13:48:13.373Z,10.08
2018-12-18T13:50:41.605Z,10.07
2018-12-18T13:53:09.956Z,9.92
2018-12-18T13:55:38.256Z,10.08
2018-12-18T13:58:06.954Z,10.11
2018-12-18T14:00:35.288Z,10.11
2018-12-18T14:03:03.452Z,10.13
2018-12-18T14:05:31.672Z,10.13
2018-12-18T14:07:59.888Z,10.14
2018-12-18T14:10:28.083Z,10.14
2018-12-18T14:12:57.094Z,10.07
2018-12-18T14:15:25.617Z,10.03
2018-12-18T14:17:53.907Z,9.98
2018-12-18T14:20:22.175Z,9.94
2018-12-18T14:22:50.580Z,9.94
2018-12-18T14:25:18.864Z,9.92
2018-12-18T14:27:47.023Z,9.88
2018-12-18T14:30:15.188Z,9.81
2018-12-18T14:32:43.348Z,9.80
2018-12-18T14:35:11.680Z,9.81
2018-12-18T14:37:39.884Z,9.74
2018-12-18T14:40:08.052Z,9.73
2018-12-18T14:42:36.280Z,9.66
2018-12-18T14:45:05.269Z,9.62
2018-12-18T14:47:33.424Z,9.60
2018-12-18T14:50:01.871Z,9.57
2018-12-18T14:52:30.121Z,9.52
2018-12-18T14:54:58.284Z,9.54
2018-12-18T14:57:26.443Z,9.47
2018-12-18T14:59:54.609Z,9.46
2018-12-18T15:02:22.773Z,9.39
2018-12-18T15:04:51.103Z,9.36
2018-12-18T15:07:19.267Z,9.34
2018-12-18T15:09:47.433Z,9.31
2018-12-18T15:12:15.724Z,9.21
2018-12-18T15:14:43.879Z,9.15
2018-12-18T15:17:12.137Z,9.10
2018-12-18T15:19:40.295Z,9.10
2018-12-18T15:22:08.535Z,9.02
2018-12-18T15:24:36.696Z,9.00
2018-12-18T15:27:04.971Z,8.94
2018-12-18T15:29:33.140Z,8.90
2018-12-18T15:32:01.328Z,8.94
2018-12-18T15:34:29.493Z,8.88
2018-12-18T15:36:57.760Z,8.77
2018-12-18T15:39:25.995Z,8.72
2018-12-18T15:41:54.232Z,8.67
2018-12-18T15:44:22.388Z,8.64
2018-12-18T15:46:50.564Z,8.59
2018-12-18T15:49:18.720Z,8.59
2018-12-18T15:51:47.127Z,8.54
2018-12-18T15:54:15.316Z,8.51
2018-12-18T15:56:43.591Z,8.48
2018-12-18T15:59:11.884Z,8.46
2018-12-18T16:01:40.040Z,8.42
2018-12-18T16:04:08.312Z,8.37
2018-12-18T16:06:36.487Z,8.37
2018-12-18T16:09:07.478Z,8.36
2018-12-18T16:11:35.676Z,8.34
2018-12-18T16:14:03.928Z,8.37
2018-12-18T16:16:32.283Z,8.30
2018-12-18T16:19:00.481Z,8.29
2018-12-18T16:21:28.636Z,8.27
2018-12-18T16:23:56.809Z,8.29
2018-12-18T16:26:24.968Z,8.28
2018-12-18T16:28:53.136Z,8.25
2018-12-18T16:31:21.296Z,8.28
2018-12-18T16:33:49.464Z,8.30
2018-12-18T16:36:17.791Z,8.25
2018-12-18T16:38:46.031Z,8.22
2018-12-18T16:41:14.199Z,8.21
2018-12-18T16:43:42.390Z,8.24
2018-12-18T16:46:10.543Z,8.20
2018-12-18T16:48:38.808Z,8.26
2018-12-18T16:51:07.059Z,8.16
2018-12-18T16:53:35.344Z,8.14
2018-12-18T16:56:03.684Z,8.21
2018-12-18T16:58:31.935Z,8.16
2018-12-18T17:01:00.225Z,8.13
2018-12-18T17:03:28.411Z,8.10
2018-12-18T17:05:56.690Z,8.07
2018-12-18T17:08:24.933Z,8.01
2018-12-18T17:10:53.197Z,7.99
2018-12-18T17:13:21.516Z,7.95
2018-12-18T17:15:49.700Z,8.00
2018-12-18T17:18:17.965Z,7.94
2018-12-18T17:20:46.141Z,7.95
2018-12-18T17:23:14.320Z,7.90
2018-12-18T17:25:42.903Z,7.88
2018-12-18T17:28:11.071Z,7.86
2018-12-18T17:30:39.253Z,7.77
2018-12-18T17:33:07.512Z,7.76
2018-12-18T17:35:35.907Z,7.73
2018-12-18T17:38:04.260Z,7.74
2018-12-18T17:40:32.804Z,7.71
2018-12-18T17:43:00.963Z,7.67
2018-12-18T17:45:29.140Z,7.62
2018-12-18T17:47:57.303Z,7.60
2018-12-18T17:50:25.471Z,7.59
2018-12-18T17:52:53.652Z,7.55
2018-12-18T17:55:21.828Z,7.50
2018-12-18T17:57:49.988Z,7.54
2018-12-18T18:00:18.324Z,7.45
2018-12-18T18:02:46.542Z,7.42
2018-12-18T18:05:14.747Z,7.37
2018-12-18T18:07:43.213Z,7.36
2018-12-18T18:10:11.472Z,7.32
2018-12-18T18:12:39.639Z,7.31
2018-12-18T18:15:07.983Z,7.29
2018-12-18T18:17:36.215Z,7.24
2018-12-18T18:20:05.701Z,7.22
2018-12-18T18:22:34.667Z,7.25
2018-12-18T18:25:02.927Z,7.20
2018-12-18T18:27:31.174Z,7.16
2018-12-18T18:29:59.390Z,7.12
2018-12-18T18:32:28.351Z,7.06
2018-12-18T18:34:56.511Z,7.05
2018-12-18T18:37:24.791Z,7.07
2018-12-18T18:39:53.071Z,7.00
2018-12-18T18:42:21.376Z,6.97
2018-12-18T18:44:49.625Z,6.93
2018-12-18T18:47:17.796Z,6.95
2018-12-18T18:49:45.959Z,6.94
2018-12-18T18:52:14.144Z,6.89
2018-12-18T18:54:42.312Z,6.85
2018-12-18T18:57:10.492Z,6.85
2018-12-18T18:59:38.651Z,6.80
2018-12-18T19:02:06.855Z,6.78
2018-12-18T19:04:35.120Z,6.75
2018-12-18T19:07:03.353Z,6.71
2018-12-18T19:09:31.559Z,6.71
2018-12-18T19:11:59.828Z,6.68
2018-12-18T19:14:27.992Z,6.66
2018-12-18T19:16:56.173Z,6.63
2018-12-18T19:19:24.336Z,6.60
2018-12-18T19:21:52.495Z,6.55
2018-12-18T19:24:20.839Z,6.53
2018-12-18T19:26:48.999Z,6.57
2018-12-18T19:29:17.172Z,6.51
2018-12-18T19:31:45.373Z,6.42
2018-12-18T19:34:13.535Z,6.42
2018-12-18T19:36:41.875Z,6.42
2018-12-18T19:39:10.096Z,6.39
2018-12-18T19:41:39.245Z,6.42
2018-12-18T19:44:07.448Z,6.46
2018-12-18T19:46:35.616Z,6.38
2018-12-18T19:49:04.524Z,6.37
2018-12-18T19:51:32.803Z,6.36
2018-12-18T19:54:01.005Z,6.42
2018-12-18T19:56:29.240Z,6.41
2018-12-18T19:58:57.473Z,6.42
2018-12-18T20:01:25.695Z,6.46
2018-12-18T20:03:53.872Z,6.43
2018-12-18T20:06:22.031Z,6.48
2018-12-18T20:08:50.320Z,6.51
2018-12-18T20:11:18.504Z,6.55
2018-12-18T20:13:46.767Z,6.58
2018-12-18T20:16:15.176Z,6.58
2018-12-18T20:18:43.340Z,6.65
2018-12-18T20:21:11.515Z,6.59
2018-12-18T20:23:39.732Z,6.57
2018-12-18T20:26:09.828Z,6.56
2018-12-18T20:28:38.088Z,6.56
2018-12-18T20:31:06.307Z,6.51
2018-12-18T20:33:34.535Z,6.52
2018-12-18T20:36:02.707Z,6.48
2018-12-18T20:38:30.976Z,6.51
2018-12-18T20:40:59.260Z,6.53
2018-12-18T20:43:27.527Z,6.57
2018-12-18T20:45:55.724Z,6.70
2018-12-18T20:48:23.904Z,6.59
2018-12-18T20:50:52.170Z,6.57
2018-12-18T20:53:20.339Z,6.54
2018-12-18T20:55:48.521Z,6.49
2018-12-18T20:58:16.679Z,6.44
2018-12-18T21:00:44.948Z,6.44
2018-12-18T21:03:13.196Z,6.37
2018-12-18T21:05:41.476Z,6.31
2018-12-18T21:08:09.944Z,6.28
2018-12-18T21:10:38.213Z,6.25
2018-12-18T21:13:11.824Z,6.24
2018-12-18T21:15:40.202Z,6.24
2018-12-18T21:18:08.506Z,6.22
2018-12-18T21:20:37.486Z,6.30
2018-12-18T21:23:05.953Z,6.19
2018-12-18T21:25:34.215Z,6.15
2018-12-18T21:28:02.517Z,6.13
2018-12-18T21:30:30.854Z,6.11
2018-12-18T21:32:59.266Z,6.15
2018-12-18T21:35:27.545Z,6.09
2018-12-18T21:37:55.924Z,6.07
2018-12-18T21:40:24.188Z,6.09
2018-12-18T21:42:52.482Z,6.02
2018-12-18T21:45:20.746Z,6.00
2018-12-18T21:47:49.020Z,6.00
2018-12-18T21:50:17.300Z,5.99
2018-12-18T21:52:45.703Z,5.99
2018-12-18T21:55:13.959Z,6.03
2018-12-18T21:57:42.244Z,6.04
2018-12-18T22:00:13.535Z,6.04
2018-12-18T22:02:41.881Z,6.04
2018-12-18T22:05:10.252Z,6.05
2018-12-18T22:07:38.538Z,6.01
2018-12-18T22:10:07.809Z,6.02
2018-12-18T22:12:36.103Z,6.02
2018-12-18T22:15:05.928Z,6.01
2018-12-18T22:17:34.324Z,5.99
2018-12-18T22:20:02.902Z,5.97
2018-12-18T22:22:31.255Z,5.96
2018-12-18T22:24:59.516Z,5.95
2018-12-18T22:27:27.679Z,5.96
2018-12-18T22:29:55.847Z,5.94
2018-12-18T22:32:24.016Z,5.91
2018-12-18T22:34:52.175Z,5.92
2018-12-18T22:37:20.373Z,5.89
2018-12-18T22:39:48.556Z,5.86
2018-12-18T22:42:16.720Z,5.82
2018-12-18T22:44:44.899Z,5.84
2018-12-18T22:47:13.052Z,5.88
2018-12-18T22:49:41.223Z,5.82
2018-12-18T22:52:09.385Z,5.85
2018-12-18T22:54:37.552Z,5.76
2018-12-18T22:57:05.768Z,5.75
2018-12-18T22:59:33.969Z,5.77
2018-12-18T23:02:06.296Z,5.78
2018-12-18T23:04:36.149Z,5.80
2018-12-18T23:07:04.416Z,5.83
2018-12-18T23:09:32.591Z,5.82
2018-12-18T23:12:00.744Z,5.83
2018-12-18T23:14:28.916Z,5.79
2018-12-18T23:16:57.871Z,5.79
2018-12-18T23:19:26.139Z,5.77
2018-12-18T23:21:54.464Z,5.77
2018-12-18T23:24:22.656Z,5.71
2018-12-18T23:26:50.816Z,5.72
2018-12-18T23:29:18.980Z,5.70
2018-12-18T23:31:47.187Z,5.70
2018-12-18T23:34:15.344Z,5.71
2018-12-18T23:36:43.535Z,5.69
2018-12-18T23:39:11.795Z,5.68
2018-12-18T23:41:39.966Z,5.71
2018-12-18T23:44:08.260Z,5.71
2018-12-18T23:46:36.508Z,5.71
2018-12-18T23:49:04.784Z,5.72
2018-12-18T23:51:32.956Z,5.70
2018-12-18T23:54:01.123Z,5.72
2018-12-18T23:56:29.387Z,5.70
2018-12-18T23:58:57.732Z,5.70
